»·PEaware :: N350KA KLAS-KBOI

N350KA :: KLAS-KBOI

FLIGHT INFORMATION

Flight Status: Arrived
Operator: Privately registered:
United States
More flights under this callsign
Pilot: Paul S. (10596)
Aircraft: BEECH AIRCRAFT SUPER KING AIR 350
(B350)
More flights by this aircraft type
Origin: KLAS McCarran Intl
United States
Destination: KBOI Boise Air Terminal/Gowen
United States
More flights between these airports :: More routes between these airports
Route: +MLF ELY BROPH SPUUD3
File this flight plan on PilotEdge
Remarks:
Altitude:
(Current/Filed)
2OOOO
Speed:
(Current/Filed)
250kts
Departed: 08-Feb-18 03:21 PM
Arrived: 08-Feb-18 06:13 PM
Distance/Time
Traveled:
452nm/2:52
Distance/Time
To Go:
Arrived

Flight Plot

Page will automatically refresh every two minutes.

Flight plan parsing failed; only flown route is shown


Map Options




Map Legend


Flown Route
Filed Route
Departure Airport
Arrival Airport
Navaid (VOR, NDB)
Fix

Horizontal Profiles

Position Reports

Time Latitude Longitude Heading Altitude Ground
Speed
08-Feb-18 15:03 36.085388 -115.151876 258 2185ft 0kts
08-Feb-18 15:04 36.085388 -115.151876 258 2185ft 0kts
08-Feb-18 15:05 36.085388 -115.151876 258 2185ft 0kts
08-Feb-18 15:06 36.085388 -115.151878 258 2185ft 0kts
08-Feb-18 15:07 36.085388 -115.151878 258 2185ft 0kts
08-Feb-18 15:08 36.085388 -115.151878 258 2185ft 0kts
08-Feb-18 15:09 36.085388 -115.151878 258 2185ft 0kts
08-Feb-18 15:10 36.085388 -115.151878 258 2185ft 0kts
08-Feb-18 15:11 36.085388 -115.151878 258 2185ft 0kts
08-Feb-18 15:12 36.085388 -115.151878 258 2185ft 0kts
08-Feb-18 15:13 36.085388 -115.151878 258 2185ft 0kts
08-Feb-18 15:14 36.085388 -115.151878 258 2185ft 0kts
08-Feb-18 15:15 36.085388 -115.151878 258 2185ft 0kts
08-Feb-18 15:16 36.085388 -115.151878 258 2185ft 0kts
08-Feb-18 15:17 36.085388 -115.151878 258 2185ft 0kts
08-Feb-18 15:18 36.085388 -115.151878 258 2185ft 0kts
08-Feb-18 15:19 36.085468 -115.151384 258 2185ft 2kts
08-Feb-18 15:20 36.085765 -115.151518 59 2185ft 0kts
08-Feb-18 15:21 36.087156 -115.151872 345 2185ft 0kts
08-Feb-18 15:22 36.089635 -115.151804 1 2185ft 17kts
08-Feb-18 15:23 36.093289 -115.153753 316 2185ft 13kts
08-Feb-18 15:24 36.096090 -115.152830 24 2185ft 11kts
08-Feb-18 15:25 36.097928 -115.152468 303 2185ft 0kts
08-Feb-18 15:26 36.097928 -115.152468 303 2185ft 0kts
08-Feb-18 15:27 36.098108 -115.152810 301 2185ft 5kts
08-Feb-18 15:28 36.085357 -115.160948 201 2376ft 150kts
08-Feb-18 15:29 36.031778 -115.171479 185 3485ft 227kts
08-Feb-18 15:30 35.965812 -115.179467 185 4349ft 238kts
08-Feb-18 15:31 35.899118 -115.187230 185 4982ft 246kts
08-Feb-18 15:32 35.830131 -115.195297 184 5010ft 248kts
08-Feb-18 15:33 35.762327 -115.203827 185 5791ft 232kts
08-Feb-18 15:34 35.700376 -115.201538 142 7539ft 224kts
08-Feb-18 15:35 35.709639 -115.143385 10 9309ft 211kts
08-Feb-18 15:36 35.767701 -115.151377 349 11090ft 211kts
08-Feb-18 15:37 35.825963 -115.162699 348 12861ft 211kts
08-Feb-18 15:38 35.884053 -115.173978 346 14627ft 211kts
08-Feb-18 15:39 35.942559 -115.180842 13 16386ft 221kts
08-Feb-18 15:40 35.993283 -115.133386 29 18162ft 231kts
08-Feb-18 15:41 36.045707 -115.087420 27 19877ft 234kts
08-Feb-18 15:42 36.103140 -115.037747 28 20052ft 262kts
08-Feb-18 15:43 36.163934 -114.985095 28 20049ft 270kts
08-Feb-18 15:44 36.225978 -114.931308 28 20049ft 272kts
08-Feb-18 15:45 36.288117 -114.877346 28 20048ft 273kts
08-Feb-18 15:46 36.350361 -114.823187 27 20044ft 273kts
08-Feb-18 15:47 36.412780 -114.768775 27 20043ft 273kts
08-Feb-18 15:48 36.474997 -114.714430 27 20043ft 273kts
08-Feb-18 15:49 36.537163 -114.660022 27 20045ft 273kts
08-Feb-18 15:50 36.599475 -114.605371 27 20049ft 273kts
08-Feb-18 15:51 36.661535 -114.550835 27 20058ft 273kts
08-Feb-18 15:52 36.723761 -114.496043 27 20061ft 273kts
08-Feb-18 15:53 36.785737 -114.441355 27 20067ft 273kts
08-Feb-18 15:54 36.847724 -114.386550 27 20071ft 273kts
08-Feb-18 15:55 36.909866 -114.331495 27 20072ft 273kts
08-Feb-18 15:55 36.961463 -114.285693 27 20085ft 273kts
08-Feb-18 15:57 37.033646 -114.221495 27 20089ft 273kts
08-Feb-18 15:57 37.085438 -114.175334 27 20089ft 273kts
08-Feb-18 15:58 37.147098 -114.120284 26 20090ft 272kts
08-Feb-18 16:00 37.219388 -114.055587 26 20086ft 273kts
08-Feb-18 16:01 37.281205 -114.000130 26 20090ft 273kts
08-Feb-18 16:01 37.332683 -113.953877 26 20092ft 273kts
08-Feb-18 16:03 37.404918 -113.888829 26 20090ft 273kts
08-Feb-18 16:03 37.456330 -113.842432 26 20094ft 273kts
08-Feb-18 16:04 37.517953 -113.786722 25 20101ft 273kts
08-Feb-18 16:05 37.579721 -113.730764 25 20103ft 273kts
08-Feb-18 16:06 37.641291 -113.674867 26 20101ft 273kts
08-Feb-18 16:07 37.703039 -113.618690 26 20113ft 273kts
08-Feb-18 16:08 37.764545 -113.562617 26 20119ft 273kts
08-Feb-18 16:09 37.826092 -113.506386 25 20121ft 273kts
08-Feb-18 16:10 37.887785 -113.449904 26 20123ft 273kts
08-Feb-18 16:11 37.949277 -113.393489 26 20134ft 273kts
08-Feb-18 16:12 38.011080 -113.336666 26 20132ft 274kts
08-Feb-18 16:13 38.072660 -113.279923 25 20132ft 274kts
08-Feb-18 16:14 38.134249 -113.223053 25 20132ft 274kts
08-Feb-18 16:15 38.195987 -113.165920 24 20133ft 274kts
08-Feb-18 16:16 38.257478 -113.108903 24 20135ft 274kts
08-Feb-18 16:17 38.319894 -113.053892 10 20130ft 261kts
08-Feb-18 16:18 38.382906 -113.065286 319 20124ft 225kts
08-Feb-18 16:19 38.420153 -113.127717 303 20126ft 222kts
08-Feb-18 16:20 38.454721 -113.193431 303 20126ft 222kts
08-Feb-18 16:21 38.489105 -113.259240 303 20121ft 223kts
08-Feb-18 16:22 38.523423 -113.325078 303 20122ft 223kts
08-Feb-18 16:23 38.557815 -113.391198 303 20122ft 223kts
08-Feb-18 16:24 38.592067 -113.457185 303 20124ft 223kts
08-Feb-18 16:25 38.626428 -113.523518 303 20125ft 223kts
08-Feb-18 16:26 38.660708 -113.589830 303 20124ft 224kts
08-Feb-18 16:27 38.694943 -113.656190 303 20130ft 223kts
08-Feb-18 16:28 38.729174 -113.722681 303 20139ft 223kts
08-Feb-18 16:29 38.763252 -113.789009 303 20138ft 223kts
08-Feb-18 16:30 38.797432 -113.855674 303 20136ft 223kts
08-Feb-18 16:31 38.831481 -113.922223 303 20141ft 223kts
08-Feb-18 16:32 38.865453 -113.988758 303 20156ft 222kts
08-Feb-18 16:33 38.899392 -114.055363 303 20155ft 222kts
08-Feb-18 16:34 38.933220 -114.121890 303 20157ft 222kts
08-Feb-18 16:35 38.966990 -114.188445 303 20164ft 222kts
08-Feb-18 16:36 39.000764 -114.255142 303 20167ft 222kts
08-Feb-18 16:37 39.034436 -114.321778 303 20170ft 222kts
08-Feb-18 16:38 39.068034 -114.388406 303 20178ft 221kts
08-Feb-18 16:39 39.101347 -114.454610 303 20182ft 220kts
08-Feb-18 16:40 39.134599 -114.520828 303 20180ft 220kts
08-Feb-18 16:41 39.167945 -114.587372 303 20180ft 220kts
08-Feb-18 16:42 39.201153 -114.653783 302 20186ft 220kts
08-Feb-18 16:43 39.234363 -114.720329 302 20188ft 220kts
08-Feb-18 16:44 39.267426 -114.786724 302 20188ft 220kts
08-Feb-18 16:45 39.306054 -114.846675 331 20188ft 227kts
08-Feb-18 16:47 39.372619 -114.848039 349 20189ft 240kts
08-Feb-18 16:48 39.439457 -114.849262 349 20188ft 240kts
08-Feb-18 16:49 39.506533 -114.849894 349 20188ft 240kts
08-Feb-18 16:50 39.573327 -114.850421 349 20186ft 240kts
08-Feb-18 16:51 39.640061 -114.850932 349 20186ft 240kts
08-Feb-18 16:52 39.706958 -114.851441 349 20184ft 239kts
08-Feb-18 16:53 39.773568 -114.851952 349 20183ft 239kts
08-Feb-18 16:54 39.840418 -114.852462 349 20180ft 239kts
08-Feb-18 16:55 39.907334 -114.852997 349 20179ft 242kts
08-Feb-18 16:56 39.974759 -114.853510 349 20178ft 243kts
08-Feb-18 16:57 40.042496 -114.854024 349 20174ft 242kts
08-Feb-18 16:58 40.109847 -114.854530 348 20173ft 241kts
08-Feb-18 16:59 40.176733 -114.855054 348 20171ft 240kts
08-Feb-18 17:00 40.243671 -114.855576 348 20168ft 240kts
08-Feb-18 17:01 40.310307 -114.856094 348 20168ft 239kts
08-Feb-18 17:02 40.377076 -114.856616 348 20165ft 239kts
08-Feb-18 17:03 40.443589 -114.857133 348 20164ft 239kts
08-Feb-18 17:04 40.510093 -114.857653 348 20164ft 239kts
08-Feb-18 17:05 40.576746 -114.858174 348 20161ft 239kts
08-Feb-18 17:06 40.643112 -114.858693 348 20162ft 238kts
08-Feb-18 17:07 40.709629 -114.859217 348 20160ft 238kts
08-Feb-18 17:08 40.775899 -114.859743 348 20159ft 238kts
08-Feb-18 17:09 40.842120 -114.860266 348 20160ft 238kts
08-Feb-18 17:10 40.908474 -114.860791 347 20160ft 238kts
08-Feb-18 17:11 40.974555 -114.861311 347 20162ft 237kts
08-Feb-18 17:12 41.040732 -114.861838 347 20163ft 237kts
08-Feb-18 17:13 41.106601 -114.862363 347 20162ft 237kts
08-Feb-18 17:14 41.172419 -114.862886 347 20165ft 236kts
08-Feb-18 17:15 41.238361 -114.863414 347 20165ft 236kts
08-Feb-18 17:16 41.304070 -114.863941 347 20166ft 236kts
08-Feb-18 17:17 41.369766 -114.864467 347 20170ft 236kts
08-Feb-18 17:18 41.435701 -114.864996 347 20170ft 236kts
08-Feb-18 17:19 41.501319 -114.865523 347 20175ft 236kts
08-Feb-18 17:20 41.567099 -114.866054 346 20177ft 235kts
08-Feb-18 17:21 41.632555 -114.866584 346 20177ft 235kts
08-Feb-18 17:22 41.698059 -114.867114 346 20183ft 235kts
08-Feb-18 17:23 41.763709 -114.867648 346 20183ft 235kts
08-Feb-18 17:24 41.829138 -114.868179 346 20184ft 235kts
08-Feb-18 17:25 41.894720 -114.868710 346 20189ft 234kts
08-Feb-18 17:26 41.959886 -114.869242 346 20190ft 234kts
08-Feb-18 17:27 42.024994 -114.869761 345 20193ft 233kts
08-Feb-18 17:28 42.089898 -114.870298 345 20194ft 232kts
08-Feb-18 17:29 42.154373 -114.870834 345 20195ft 231kts
08-Feb-18 17:30 42.218999 -114.871366 345 20197ft 231kts
08-Feb-18 17:31 42.283374 -114.871899 345 20197ft 231kts
08-Feb-18 17:32 42.347748 -114.872431 345 20197ft 231kts
08-Feb-18 17:33 42.412280 -114.872964 345 20198ft 231kts
08-Feb-18 17:34 42.476627 -114.873499 345 20198ft 231kts
08-Feb-18 17:35 42.540925 -114.874034 345 20197ft 231kts
08-Feb-18 17:36 42.605423 -114.874570 345 20195ft 231kts
08-Feb-18 17:37 42.669647 -114.875107 345 20193ft 231kts
08-Feb-18 17:38 42.731812 -114.888349 315 19302ft 224kts
08-Feb-18 17:39 42.773727 -114.952378 311 17675ft 230kts
08-Feb-18 17:40 42.817173 -115.013522 310 17002ft 214kts
08-Feb-18 17:41 42.857204 -115.071045 310 17000ft 205kts
08-Feb-18 17:42 42.896167 -115.127221 309 17006ft 203kts
08-Feb-18 17:43 42.934845 -115.183168 309 17007ft 202kts
08-Feb-18 17:44 42.973585 -115.239362 309 17007ft 203kts
08-Feb-18 17:45 43.012183 -115.295516 309 17005ft 203kts
08-Feb-18 17:46 43.050827 -115.351821 309 17017ft 202kts
08-Feb-18 17:47 43.089236 -115.407891 309 17025ft 202kts
08-Feb-18 17:48 43.127591 -115.463995 309 17025ft 202kts
08-Feb-18 17:49 43.166083 -115.520326 309 17023ft 202kts
08-Feb-18 17:50 43.204799 -115.577014 310 17028ft 209kts
08-Feb-18 17:51 43.245778 -115.637220 312 16987ft 232kts
08-Feb-18 17:52 43.288158 -115.712462 295 17032ft 255kts
08-Feb-18 17:53 43.319814 -115.800835 296 17037ft 262kts
08-Feb-18 17:54 43.353497 -115.891605 296 17042ft 269kts
08-Feb-18 17:55 43.387586 -115.983334 296 17041ft 270kts
08-Feb-18 17:56 43.422056 -116.076434 296 16616ft 283kts
08-Feb-18 17:57 43.458761 -116.175858 296 15117ft 294kts
08-Feb-18 17:58 43.493866 -116.277105 294 13611ft 291kts
08-Feb-18 17:59 43.527938 -116.377757 294 12100ft 287kts
08-Feb-18 18:00 43.561281 -116.476434 294 10594ft 282kts
08-Feb-18 18:01 43.594146 -116.574053 294 9082ft 278kts
08-Feb-18 18:02 43.639870 -116.651267 348 7574ft 263kts
08-Feb-18 18:03 43.706093 -116.665817 349 6195ft 222kts
08-Feb-18 18:03 43.753079 -116.677740 349 6056ft 192kts
08-Feb-18 18:05 43.812398 -116.692890 348 6057ft 182kts
08-Feb-18 18:06 43.852264 -116.730526 302 6061ft 179kts
08-Feb-18 18:07 43.880407 -116.787863 303 6060ft 180kts
08-Feb-18 18:08 43.883970 -116.845944 207 6060ft 178kts
08-Feb-18 18:09 43.842239 -116.814716 135 6062ft 185kts
08-Feb-18 18:09 43.812261 -116.772276 135 6061ft 185kts
08-Feb-18 18:10 43.776276 -116.721217 135 6061ft 185kts
08-Feb-18 18:12 43.733625 -116.662975 135 6059ft 183kts
08-Feb-18 18:12 43.703296 -116.622013 135 6059ft 183kts
08-Feb-18 18:14 43.660943 -116.551546 118 4629ft 206kts
08-Feb-18 18:14 43.639926 -116.496478 117 4559ft 184kts
08-Feb-18 18:15 43.616653 -116.434991 117 4547ft 178kts
08-Feb-18 18:16 43.603865 -116.368308 106 4125ft 163kts
08-Feb-18 18:17 43.593930 -116.310338 102 3464ft 147kts
08-Feb-18 18:18 43.576425 -116.263819 111 3208ft 125kts
08-Feb-18 18:19 43.565408 -116.228862 124 2875ft 15kts
08-Feb-18 18:20 43.564036 -116.224158 50 2875ft 11kts
08-Feb-18 18:21 43.564814 -116.223686 3 2875ft 0kts
08-Feb-18 18:22 43.564819 -116.223685 3 2875ft 0kts
08-Feb-18 18:23 43.567474 -116.222855 17 2875ft 0kts

Navigation Log

Ident Type
Flight plan parsing failed, navigation log unavailable